sensor_id;sensor_type;location;lat;lon;timestamp;P1;durP1;ratioP1;P2;durP2;ratioP2
16468;SDS011;8345;50.902;6.956;2023-12-14T00:01:59;19.57;;;16.10;;
16468;SDS011;8345;50.902;6.956;2023-12-14T00:04:27;18.60;;;15.77;;
16468;SDS011;8345;50.902;6.956;2023-12-14T00:06:54;18.50;;;16.13;;
16468;SDS011;8345;50.902;6.956;2023-12-14T00:09:21;21.60;;;17.57;;
16468;SDS011;8345;50.902;6.956;2023-12-14T00:11:50;22.60;;;17.93;;
16468;SDS011;8345;50.902;6.956;2023-12-14T00:14:17;21.53;;;18.23;;
16468;SDS011;8345;50.902;6.956;2023-12-14T00:16:44;20.23;;;17.07;;
16468;SDS011;8345;50.902;6.956;2023-12-14T00:19:11;21.77;;;17.00;;
16468;SDS011;8345;50.902;6.956;2023-12-14T00:21:38;23.60;;;18.47;;
16468;SDS011;8345;50.902;6.956;2023-12-14T00:24:06;24.53;;;18.90;;
16468;SDS011;8345;50.902;6.956;2023-12-14T00:26:33;24.87;;;18.53;;
16468;SDS011;8345;50.902;6.956;2023-12-14T00:29:01;24.87;;;19.03;;
16468;SDS011;8345;50.902;6.956;2023-12-14T00:31:29;25.50;;;18.53;;
16468;SDS011;8345;50.902;6.956;2023-12-14T00:33:56;26.27;;;20.67;;
16468;SDS011;8345;50.902;6.956;2023-12-14T00:36:23;29.20;;;20.13;;
16468;SDS011;8345;50.902;6.956;2023-12-14T00:38:50;31.87;;;21.53;;
16468;SDS011;8345;50.902;6.956;2023-12-14T00:41:17;32.30;;;22.47;;
16468;SDS011;8345;50.902;6.956;2023-12-14T00:43:44;35.87;;;23.20;;
16468;SDS011;8345;50.902;6.956;2023-12-14T00:46:13;36.13;;;23.33;;
16468;SDS011;8345;50.902;6.956;2023-12-14T00:48:40;38.47;;;23.57;;
16468;SDS011;8345;50.902;6.956;2023-12-14T00:51:07;35.90;;;23.43;;
16468;SDS011;8345;50.902;6.956;2023-12-14T00:53:34;43.77;;;25.73;;
16468;SDS011;8345;50.902;6.956;2023-12-14T00:56:02;40.93;;;24.50;;
16468;SDS011;8345;50.902;6.956;2023-12-14T00:58:29;38.40;;;23.93;;
16468;SDS011;8345;50.902;6.956;2023-12-14T01:00:56;40.17;;;24.97;;
16468;SDS011;8345;50.902;6.956;2023-12-14T01:03:25;41.90;;;25.43;;
16468;SDS011;8345;50.902;6.956;2023-12-14T01:05:52;38.00;;;23.73;;
16468;SDS011;8345;50.902;6.956;2023-12-14T01:08:19;38.03;;;24.20;;
16468;SDS011;8345;50.902;6.956;2023-12-14T01:10:46;42.47;;;26.27;;
16468;SDS011;8345;50.902;6.956;2023-12-14T01:13:13;36.77;;;23.80;;
16468;SDS011;8345;50.902;6.956;2023-12-14T01:15:40;39.43;;;25.23;;
16468;SDS011;8345;50.902;6.956;2023-12-14T01:18:08;38.47;;;24.23;;
16468;SDS011;8345;50.902;6.956;2023-12-14T01:20:36;39.60;;;24.70;;
16468;SDS011;8345;50.902;6.956;2023-12-14T01:23:03;36.93;;;24.50;;
16468;SDS011;8345;50.902;6.956;2023-12-14T01:25:30;36.57;;;24.87;;
16468;SDS011;8345;50.902;6.956;2023-12-14T01:27:58;42.00;;;25.53;;
16468;SDS011;8345;50.902;6.956;2023-12-14T01:30:25;35.20;;;23.17;;
16468;SDS011;8345;50.902;6.956;2023-12-14T01:32:52;34.50;;;23.27;;
16468;SDS011;8345;50.902;6.956;2023-12-14T01:35:19;37.17;;;24.87;;
16468;SDS011;8345;50.902;6.956;2023-12-14T01:37:48;33.47;;;23.50;;
16468;SDS011;8345;50.902;6.956;2023-12-14T01:40:15;34.53;;;23.10;;
16468;SDS011;8345;50.902;6.956;2023-12-14T01:42:43;36.40;;;23.43;;
16468;SDS011;8345;50.902;6.956;2023-12-14T01:45:10;36.00;;;24.33;;
16468;SDS011;8345;50.902;6.956;2023-12-14T01:47:38;35.33;;;23.27;;
16468;SDS011;8345;50.902;6.956;2023-12-14T01:50:06;34.67;;;23.33;;
16468;SDS011;8345;50.902;6.956;2023-12-14T01:52:33;33.90;;;23.60;;
16468;SDS011;8345;50.902;6.956;2023-12-14T01:55:01;34.47;;;23.83;;
16468;SDS011;8345;50.902;6.956;2023-12-14T01:57:28;36.60;;;24.27;;
16468;SDS011;8345;50.902;6.956;2023-12-14T01:59:56;35.33;;;23.27;;
16468;SDS011;8345;50.902;6.956;2023-12-14T02:02:23;35.83;;;24.37;;
16468;SDS011;8345;50.902;6.956;2023-12-14T02:04:50;36.67;;;25.57;;
16468;SDS011;8345;50.902;6.956;2023-12-14T02:07:17;38.50;;;24.87;;
16468;SDS011;8345;50.902;6.956;2023-12-14T02:09:44;39.83;;;25.63;;
16468;SDS011;8345;50.902;6.956;2023-12-14T02:12:13;38.27;;;25.43;;
16468;SDS011;8345;50.902;6.956;2023-12-14T02:14:40;33.33;;;24.57;;
16468;SDS011;8345;50.902;6.956;2023-12-14T02:17:07;37.80;;;24.87;;
16468;SDS011;8345;50.902;6.956;2023-12-14T02:19:34;41.57;;;26.00;;
16468;SDS011;8345;50.902;6.956;2023-12-14T02:22:02;34.80;;;24.83;;
16468;SDS011;8345;50.902;6.956;2023-12-14T02:24:30;39.07;;;26.10;;
16468;SDS011;8345;50.902;6.956;2023-12-14T02:26:58;34.50;;;24.17;;
16468;SDS011;8345;50.902;6.956;2023-12-14T02:29:25;34.60;;;24.07;;
16468;SDS011;8345;50.902;6.956;2023-12-14T02:31:52;37.27;;;25.27;;
16468;SDS011;8345;50.902;6.956;2023-12-14T02:34:19;38.17;;;25.50;;
16468;SDS011;8345;50.902;6.956;2023-12-14T02:36:47;35.77;;;25.27;;
16468;SDS011;8345;50.902;6.956;2023-12-14T02:39:14;41.47;;;27.03;;
16468;SDS011;8345;50.902;6.956;2023-12-14T02:41:42;41.03;;;25.97;;
16468;SDS011;8345;50.902;6.956;2023-12-14T02:44:09;43.53;;;27.83;;
16468;SDS011;8345;50.902;6.956;2023-12-14T02:46:37;42.97;;;28.13;;
16468;SDS011;8345;50.902;6.956;2023-12-14T02:49:04;44.67;;;28.67;;
16468;SDS011;8345;50.902;6.956;2023-12-14T02:51:31;41.03;;;27.37;;
16468;SDS011;8345;50.902;6.956;2023-12-14T02:53:58;48.90;;;28.60;;
16468;SDS011;8345;50.902;6.956;2023-12-14T02:56:25;44.57;;;27.87;;
16468;SDS011;8345;50.902;6.956;2023-12-14T02:58:54;39.10;;;26.43;;
16468;SDS011;8345;50.902;6.956;2023-12-14T03:01:21;41.73;;;25.63;;
16468;SDS011;8345;50.902;6.956;2023-12-14T03:03:48;38.43;;;24.70;;
16468;SDS011;8345;50.902;6.956;2023-12-14T03:06:15;38.27;;;25.80;;
16468;SDS011;8345;50.902;6.956;2023-12-14T03:08:42;32.87;;;23.57;;
16468;SDS011;8345;50.902;6.956;2023-12-14T03:11:10;31.60;;;21.07;;
16468;SDS011;8345;50.902;6.956;2023-12-14T03:13:37;33.87;;;22.10;;
16468;SDS011;8345;50.902;6.956;2023-12-14T03:16:06;34.57;;;22.83;;
16468;SDS011;8345;50.902;6.956;2023-12-14T03:18:33;33.73;;;22.83;;
16468;SDS011;8345;50.902;6.956;2023-12-14T03:21:00;36.17;;;23.20;;
16468;SDS011;8345;50.902;6.956;2023-12-14T03:23:27;38.13;;;23.73;;
16468;SDS011;8345;50.902;6.956;2023-12-14T03:25:55;39.23;;;25.00;;
16468;SDS011;8345;50.902;6.956;2023-12-14T03:28:22;37.33;;;24.70;;
16468;SDS011;8345;50.902;6.956;2023-12-14T03:30:49;37.03;;;24.87;;
16468;SDS011;8345;50.902;6.956;2023-12-14T03:33:17;36.77;;;24.57;;
16468;SDS011;8345;50.902;6.956;2023-12-14T03:35:45;38.17;;;25.77;;
16468;SDS011;8345;50.902;6.956;2023-12-14T03:38:13;36.63;;;24.63;;
16468;SDS011;8345;50.902;6.956;2023-12-14T03:40:40;42.87;;;26.57;;
16468;SDS011;8345;50.902;6.956;2023-12-14T03:43:07;39.77;;;25.50;;
16468;SDS011;8345;50.902;6.956;2023-12-14T03:45:34;43.07;;;26.57;;
16468;SDS011;8345;50.902;6.956;2023-12-14T03:48:01;40.50;;;25.57;;
16468;SDS011;8345;50.902;6.956;2023-12-14T03:50:30;42.60;;;25.43;;
16468;SDS011;8345;50.902;6.956;2023-12-14T03:52:57;37.87;;;24.50;;
16468;SDS011;8345;50.902;6.956;2023-12-14T03:55:25;41.90;;;26.07;;
16468;SDS011;8345;50.902;6.956;2023-12-14T03:57:52;37.23;;;22.27;;
16468;SDS011;8345;50.902;6.956;2023-12-14T04:00:19;37.50;;;23.67;;
16468;SDS011;8345;50.902;6.956;2023-12-14T04:02:47;37.40;;;25.40;;
16468;SDS011;8345;50.902;6.956;2023-12-14T04:05:14;40.30;;;24.60;;
16468;SDS011;8345;50.902;6.956;2023-12-14T04:07:43;39.50;;;24.27;;
16468;SDS011;8345;50.902;6.956;2023-12-14T04:10:10;41.30;;;26.07;;
16468;SDS011;8345;50.902;6.956;2023-12-14T04:12:38;40.63;;;25.33;;
16468;SDS011;8345;50.902;6.956;2023-12-14T04:15:06;36.50;;;25.07;;
16468;SDS011;8345;50.902;6.956;2023-12-14T04:17:34;36.53;;;24.40;;
16468;SDS011;8345;50.902;6.956;2023-12-14T04:20:01;37.60;;;25.00;;
16468;SDS011;8345;50.902;6.956;2023-12-14T04:22:31;33.90;;;24.03;;
16468;SDS011;8345;50.902;6.956;2023-12-14T04:24:59;31.13;;;23.50;;
16468;SDS011;8345;50.902;6.956;2023-12-14T04:27:27;27.57;;;20.57;;
16468;SDS011;8345;50.902;6.956;2023-12-14T04:29:55;31.80;;;21.90;;
16468;SDS011;8345;50.902;6.956;2023-12-14T04:32:22;32.47;;;22.53;;
16468;SDS011;8345;50.902;6.956;2023-12-14T04:34:49;30.10;;;20.77;;
16468;SDS011;8345;50.902;6.956;2023-12-14T04:37:16;30.63;;;20.83;;
16468;SDS011;8345;50.902;6.956;2023-12-14T04:39:44;34.40;;;22.40;;
16468;SDS011;8345;50.902;6.956;2023-12-14T04:42:12;35.13;;;22.30;;
16468;SDS011;8345;50.902;6.956;2023-12-14T04:44:39;32.73;;;21.67;;
16468;SDS011;8345;50.902;6.956;2023-12-14T04:47:07;32.60;;;22.40;;
16468;SDS011;8345;50.902;6.956;2023-12-14T04:49:34;35.07;;;23.80;;
16468;SDS011;8345;50.902;6.956;2023-12-14T04:52:01;35.77;;;24.40;;
16468;SDS011;8345;50.902;6.956;2023-12-14T04:54:28;37.80;;;24.70;;
16468;SDS011;8345;50.902;6.956;2023-12-14T04:56:56;40.83;;;25.73;;
16468;SDS011;8345;50.902;6.956;2023-12-14T04:59:24;41.40;;;27.83;;
16468;SDS011;8345;50.902;6.956;2023-12-14T05:01:51;47.80;;;29.90;;
16468;SDS011;8345;50.902;6.956;2023-12-14T05:04:18;38.07;;;26.00;;
16468;SDS011;8345;50.902;6.956;2023-12-14T05:06:46;33.60;;;23.13;;
16468;SDS011;8345;50.902;6.956;2023-12-14T05:09:13;34.20;;;23.30;;
16468;SDS011;8345;50.902;6.956;2023-12-14T05:11:40;35.37;;;24.47;;
16468;SDS011;8345;50.902;6.956;2023-12-14T05:14:07;41.40;;;23.50;;
16468;SDS011;8345;50.902;6.956;2023-12-14T05:16:36;37.77;;;23.97;;
16468;SDS011;8345;50.902;6.956;2023-12-14T05:19:04;38.20;;;25.60;;
16468;SDS011;8345;50.902;6.956;2023-12-14T05:21:31;44.83;;;27.13;;
16468;SDS011;8345;50.902;6.956;2023-12-14T05:23:59;58.47;;;34.17;;
16468;SDS011;8345;50.902;6.956;2023-12-14T05:26:26;61.33;;;35.43;;
16468;SDS011;8345;50.902;6.956;2023-12-14T05:28:53;66.50;;;37.33;;
16468;SDS011;8345;50.902;6.956;2023-12-14T05:31:20;63.37;;;37.93;;
16468;SDS011;8345;50.902;6.956;2023-12-14T05:33:49;62.30;;;36.17;;
16468;SDS011;8345;50.902;6.956;2023-12-14T05:36:16;62.47;;;36.37;;
16468;SDS011;8345;50.902;6.956;2023-12-14T05:38:44;62.17;;;36.67;;
16468;SDS011;8345;50.902;6.956;2023-12-14T05:41:11;63.03;;;36.67;;
16468;SDS011;8345;50.902;6.956;2023-12-14T05:43:38;56.37;;;35.07;;
16468;SDS011;8345;50.902;6.956;2023-12-14T05:46:05;53.10;;;32.97;;
16468;SDS011;8345;50.902;6.956;2023-12-14T05:48:33;55.93;;;32.93;;
16468;SDS011;8345;50.902;6.956;2023-12-14T05:51:03;42.43;;;27.70;;
16468;SDS011;8345;50.902;6.956;2023-12-14T05:53:30;36.23;;;23.47;;
16468;SDS011;8345;50.902;6.956;2023-12-14T05:56:01;32.23;;;21.43;;
16468;SDS011;8345;50.902;6.956;2023-12-14T05:58:28;31.63;;;21.60;;
16468;SDS011;8345;50.902;6.956;2023-12-14T06:00:56;36.83;;;23.13;;
16468;SDS011;8345;50.902;6.956;2023-12-14T06:03:23;34.33;;;23.37;;
16468;SDS011;8345;50.902;6.956;2023-12-14T06:05:50;32.67;;;22.30;;
16468;SDS011;8345;50.902;6.956;2023-12-14T06:08:18;34.63;;;21.30;;
16468;SDS011;8345;50.902;6.956;2023-12-14T06:10:46;33.40;;;21.67;;
16468;SDS011;8345;50.902;6.956;2023-12-14T06:13:13;31.80;;;21.80;;
16468;SDS011;8345;50.902;6.956;2023-12-14T06:15:40;37.07;;;23.93;;
16468;SDS011;8345;50.902;6.956;2023-12-14T06:18:07;36.93;;;22.93;;
16468;SDS011;8345;50.902;6.956;2023-12-14T06:20:34;36.07;;;23.60;;
16468;SDS011;8345;50.902;6.956;2023-12-14T06:23:01;35.30;;;23.23;;
16468;SDS011;8345;50.902;6.956;2023-12-14T06:25:30;38.60;;;23.80;;
16468;SDS011;8345;50.902;6.956;2023-12-14T06:27:57;36.93;;;23.23;;
16468;SDS011;8345;50.902;6.956;2023-12-14T06:30:24;36.73;;;23.40;;
16468;SDS011;8345;50.902;6.956;2023-12-14T06:32:51;35.47;;;22.73;;
16468;SDS011;8345;50.902;6.956;2023-12-14T06:35:19;35.27;;;21.97;;
16468;SDS011;8345;50.902;6.956;2023-12-14T06:37:46;38.10;;;22.03;;
16468;SDS011;8345;50.902;6.956;2023-12-14T06:40:13;37.03;;;22.93;;
16468;SDS011;8345;50.902;6.956;2023-12-14T06:42:42;39.50;;;23.67;;
16468;SDS011;8345;50.902;6.956;2023-12-14T06:45:09;41.33;;;25.70;;
16468;SDS011;8345;50.902;6.956;2023-12-14T06:47:37;42.33;;;25.67;;
16468;SDS011;8345;50.902;6.956;2023-12-14T06:50:07;44.57;;;26.60;;
16468;SDS011;8345;50.902;6.956;2023-12-14T06:52:34;41.10;;;26.03;;
16468;SDS011;8345;50.902;6.956;2023-12-14T06:55:01;44.50;;;26.70;;
16468;SDS011;8345;50.902;6.956;2023-12-14T06:57:28;44.10;;;27.03;;
16468;SDS011;8345;50.902;6.956;2023-12-14T06:59:57;43.90;;;27.27;;
16468;SDS011;8345;50.902;6.956;2023-12-14T07:02:24;48.23;;;28.33;;
16468;SDS011;8345;50.902;6.956;2023-12-14T07:04:51;51.20;;;29.10;;
16468;SDS011;8345;50.902;6.956;2023-12-14T07:07:18;51.00;;;29.97;;
16468;SDS011;8345;50.902;6.956;2023-12-14T07:09:45;48.23;;;29.20;;
16468;SDS011;8345;50.902;6.956;2023-12-14T07:12:13;50.47;;;28.57;;
16468;SDS011;8345;50.902;6.956;2023-12-14T07:14:40;51.33;;;29.43;;
16468;SDS011;8345;50.902;6.956;2023-12-14T07:17:09;48.13;;;29.17;;
16468;SDS011;8345;50.902;6.956;2023-12-14T07:19:36;56.87;;;29.70;;
16468;SDS011;8345;50.902;6.956;2023-12-14T07:22:03;49.43;;;28.83;;
16468;SDS011;8345;50.902;6.956;2023-12-14T07:24:29;48.77;;;27.33;;
16468;SDS011;8345;50.902;6.956;2023-12-14T07:26:57;50.50;;;27.67;;
16468;SDS011;8345;50.902;6.956;2023-12-14T07:29:24;53.70;;;27.73;;
16468;SDS011;8345;50.902;6.956;2023-12-14T07:31:52;49.50;;;27.13;;
16468;SDS011;8345;50.902;6.956;2023-12-14T07:34:20;54.03;;;28.73;;
16468;SDS011;8345;50.902;6.956;2023-12-14T07:36:49;55.33;;;28.53;;
16468;SDS011;8345;50.902;6.956;2023-12-14T07:39:17;50.97;;;28.47;;
16468;SDS011;8345;50.902;6.956;2023-12-14T07:41:44;51.13;;;28.97;;
16468;SDS011;8345;50.902;6.956;2023-12-14T07:44:11;48.00;;;27.63;;
16468;SDS011;8345;50.902;6.956;2023-12-14T07:46:38;46.97;;;25.80;;
16468;SDS011;8345;50.902;6.956;2023-12-14T07:49:07;44.40;;;26.13;;
16468;SDS011;8345;50.902;6.956;2023-12-14T07:51:36;42.73;;;25.90;;
16468;SDS011;8345;50.902;6.956;2023-12-14T07:54:04;45.67;;;26.20;;
16468;SDS011;8345;50.902;6.956;2023-12-14T07:56:31;47.43;;;26.63;;
16468;SDS011;8345;50.902;6.956;2023-12-14T07:58:58;55.37;;;27.10;;
16468;SDS011;8345;50.902;6.956;2023-12-14T08:01:25;52.10;;;27.07;;
16468;SDS011;8345;50.902;6.956;2023-12-14T08:03:53;44.43;;;24.43;;
16468;SDS011;8345;50.902;6.956;2023-12-14T08:06:20;38.80;;;23.23;;
16468;SDS011;8345;50.902;6.956;2023-12-14T08:08:48;35.03;;;21.03;;
16468;SDS011;8345;50.902;6.956;2023-12-14T08:11:15;37.23;;;19.53;;
16468;SDS011;8345;50.902;6.956;2023-12-14T08:13:43;32.63;;;19.13;;
16468;SDS011;8345;50.902;6.956;2023-12-14T08:16:10;32.63;;;17.70;;
16468;SDS011;8345;50.902;6.956;2023-12-14T08:18:37;27.17;;;18.07;;
16468;SDS011;8345;50.902;6.956;2023-12-14T08:21:05;28.33;;;17.30;;
16468;SDS011;8345;50.902;6.956;2023-12-14T08:23:33;26.00;;;15.97;;
16468;SDS011;8345;50.902;6.956;2023-12-14T08:26:02;25.40;;;16.37;;
16468;SDS011;8345;50.902;6.956;2023-12-14T08:28:31;23.70;;;14.97;;
16468;SDS011;8345;50.902;6.956;2023-12-14T08:30:58;25.13;;;16.40;;
16468;SDS011;8345;50.902;6.956;2023-12-14T08:33:27;28.70;;;17.40;;
16468;SDS011;8345;50.902;6.956;2023-12-14T08:35:54;26.53;;;17.90;;
16468;SDS011;8345;50.902;6.956;2023-12-14T08:38:22;27.30;;;18.60;;
16468;SDS011;8345;50.902;6.956;2023-12-14T08:40:49;30.50;;;19.03;;
16468;SDS011;8345;50.902;6.956;2023-12-14T08:43:18;25.80;;;16.93;;
16468;SDS011;8345;50.902;6.956;2023-12-14T08:45:45;27.97;;;17.20;;
16468;SDS011;8345;50.902;6.956;2023-12-14T08:48:13;25.73;;;17.87;;
16468;SDS011;8345;50.902;6.956;2023-12-14T08:50:40;24.47;;;16.23;;
16468;SDS011;8345;50.902;6.956;2023-12-14T08:53:08;22.47;;;15.50;;
16468;SDS011;8345;50.902;6.956;2023-12-14T08:55:36;22.03;;;14.17;;
16468;SDS011;8345;50.902;6.956;2023-12-14T08:58:03;21.87;;;15.20;;
16468;SDS011;8345;50.902;6.956;2023-12-14T09:00:32;22.03;;;14.63;;
16468;SDS011;8345;50.902;6.956;2023-12-14T09:02:59;22.23;;;14.57;;
16468;SDS011;8345;50.902;6.956;2023-12-14T09:05:26;21.73;;;14.93;;
16468;SDS011;8345;50.902;6.956;2023-12-14T09:07:53;22.77;;;15.13;;
16468;SDS011;8345;50.902;6.956;2023-12-14T09:10:21;23.57;;;15.83;;
16468;SDS011;8345;50.902;6.956;2023-12-14T09:12:48;24.50;;;16.53;;
16468;SDS011;8345;50.902;6.956;2023-12-14T09:15:15;26.37;;;16.77;;
16468;SDS011;8345;50.902;6.956;2023-12-14T09:17:44;25.93;;;17.03;;
16468;SDS011;8345;50.902;6.956;2023-12-14T09:20:12;26.00;;;16.97;;
16468;SDS011;8345;50.902;6.956;2023-12-14T09:22:39;26.27;;;17.13;;
16468;SDS011;8345;50.902;6.956;2023-12-14T09:25:07;31.17;;;18.93;;
16468;SDS011;8345;50.902;6.956;2023-12-14T09:27:35;29.10;;;19.17;;
16468;SDS011;8345;50.902;6.956;2023-12-14T09:30:02;29.57;;;19.57;;
16468;SDS011;8345;50.902;6.956;2023-12-14T09:32:30;30.57;;;18.10;;
16468;SDS011;8345;50.902;6.956;2023-12-14T09:34:59;30.07;;;19.00;;
16468;SDS011;8345;50.902;6.956;2023-12-14T09:37:26;34.67;;;20.47;;
16468;SDS011;8345;50.902;6.956;2023-12-14T09:39:53;33.30;;;20.80;;
16468;SDS011;8345;50.902;6.956;2023-12-14T09:42:20;30.67;;;20.77;;
16468;SDS011;8345;50.902;6.956;2023-12-14T09:44:48;34.50;;;21.33;;
16468;SDS011;8345;50.902;6.956;2023-12-14T09:47:15;36.13;;;22.03;;
16468;SDS011;8345;50.902;6.956;2023-12-14T09:49:42;30.60;;;20.70;;
16468;SDS011;8345;50.902;6.956;2023-12-14T09:52:11;31.90;;;20.77;;
16468;SDS011;8345;50.902;6.956;2023-12-14T09:54:39;30.13;;;19.57;;
16468;SDS011;8345;50.902;6.956;2023-12-14T09:57:06;29.57;;;19.43;;
16468;SDS011;8345;50.902;6.956;2023-12-14T09:59:33;27.13;;;18.63;;
16468;SDS011;8345;50.902;6.956;2023-12-14T10:02:08;30.02;;;22.98;;
16468;SDS011;8345;50.902;6.956;2023-12-14T10:04:36;28.03;;;19.93;;
16468;SDS011;8345;50.902;6.956;2023-12-14T10:07:03;27.43;;;18.57;;
16468;SDS011;8345;50.902;6.956;2023-12-14T10:09:33;28.93;;;18.83;;
16468;SDS011;8345;50.902;6.956;2023-12-14T10:12:04;28.43;;;18.37;;
16468;SDS011;8345;50.902;6.956;2023-12-14T10:14:31;29.80;;;18.13;;
16468;SDS011;8345;50.902;6.956;2023-12-14T10:16:59;27.53;;;18.37;;
16468;SDS011;8345;50.902;6.956;2023-12-14T10:19:42;29.77;;;19.63;;
16468;SDS011;8345;50.902;6.956;2023-12-14T10:22:09;30.00;;;19.93;;
16468;SDS011;8345;50.902;6.956;2023-12-14T10:24:38;27.73;;;17.87;;
16468;SDS011;8345;50.902;6.956;2023-12-14T10:27:05;28.60;;;18.83;;
16468;SDS011;8345;50.902;6.956;2023-12-14T10:29:33;25.63;;;18.17;;
16468;SDS011;8345;50.902;6.956;2023-12-14T10:32:01;24.57;;;16.20;;
16468;SDS011;8345;50.902;6.956;2023-12-14T10:34:29;24.17;;;16.67;;
16468;SDS011;8345;50.902;6.956;2023-12-14T10:36:56;22.03;;;17.00;;
16468;SDS011;8345;50.902;6.956;2023-12-14T10:39:23;20.60;;;15.30;;
16468;SDS011;8345;50.902;6.956;2023-12-14T10:41:52;22.73;;;16.73;;
16468;SDS011;8345;50.902;6.956;2023-12-14T10:44:20;23.00;;;16.90;;
16468;SDS011;8345;50.902;6.956;2023-12-14T10:46:48;23.10;;;16.37;;
16468;SDS011;8345;50.902;6.956;2023-12-14T10:49:15;24.93;;;17.53;;
16468;SDS011;8345;50.902;6.956;2023-12-14T10:51:43;25.73;;;18.93;;
16468;SDS011;8345;50.902;6.956;2023-12-14T10:54:10;27.53;;;18.70;;
16468;SDS011;8345;50.902;6.956;2023-12-14T10:56:37;26.17;;;18.83;;
16468;SDS011;8345;50.902;6.956;2023-12-14T10:59:06;30.47;;;20.10;;
16468;SDS011;8345;50.902;6.956;2023-12-14T11:01:33;34.13;;;22.17;;
16468;SDS011;8345;50.902;6.956;2023-12-14T11:04:03;31.87;;;21.03;;
16468;SDS011;8345;50.902;6.956;2023-12-14T11:06:38;31.03;;;20.60;;
16468;SDS011;8345;50.902;6.956;2023-12-14T11:09:05;34.33;;;22.33;;
16468;SDS011;8345;50.902;6.956;2023-12-14T11:11:43;31.87;;;21.20;;
16468;SDS011;8345;50.902;6.956;2023-12-14T11:14:14;31.40;;;20.97;;
16468;SDS011;8345;50.902;6.956;2023-12-14T11:16:43;30.43;;;20.90;;
16468;SDS011;8345;50.902;6.956;2023-12-14T11:19:24;30.40;;;20.60;;
16468;SDS011;8345;50.902;6.956;2023-12-14T11:21:59;30.67;;;21.07;;
16468;SDS011;8345;50.902;6.956;2023-12-14T11:24:35;30.90;;;20.93;;
16468;SDS011;8345;50.902;6.956;2023-12-14T11:27:03;28.43;;;19.10;;
16468;SDS011;8345;50.902;6.956;2023-12-14T11:29:32;25.60;;;19.63;;
16468;SDS011;8345;50.902;6.956;2023-12-14T11:31:59;29.23;;;20.00;;
16468;SDS011;8345;50.902;6.956;2023-12-14T11:34:27;26.87;;;19.03;;
16468;SDS011;8345;50.902;6.956;2023-12-14T11:36:54;26.37;;;19.07;;
16468;SDS011;8345;50.902;6.956;2023-12-14T11:39:22;25.50;;;18.47;;
16468;SDS011;8345;50.902;6.956;2023-12-14T11:41:58;26.77;;;18.70;;
16468;SDS011;8345;50.902;6.956;2023-12-14T11:44:25;27.27;;;18.67;;
16468;SDS011;8345;50.902;6.956;2023-12-14T11:46:53;24.83;;;18.73;;
16468;SDS011;8345;50.902;6.956;2023-12-14T11:49:21;23.63;;;17.80;;
16468;SDS011;8345;50.902;6.956;2023-12-14T11:51:48;23.73;;;17.83;;
16468;SDS011;8345;50.902;6.956;2023-12-14T11:54:17;26.10;;;19.13;;
16468;SDS011;8345;50.902;6.956;2023-12-14T11:56:45;25.20;;;17.90;;
16468;SDS011;8345;50.902;6.956;2023-12-14T11:59:14;24.67;;;18.60;;
16468;SDS011;8345;50.902;6.956;2023-12-14T12:01:54;31.33;;;22.50;;
16468;SDS011;8345;50.902;6.956;2023-12-14T12:04:21;28.80;;;20.13;;
16468;SDS011;8345;50.902;6.956;2023-12-14T12:06:49;25.37;;;18.73;;
16468;SDS011;8345;50.902;6.956;2023-12-14T12:09:31;26.07;;;19.70;;
16468;SDS011;8345;50.902;6.956;2023-12-14T12:11:58;24.60;;;18.63;;
16468;SDS011;8345;50.902;6.956;2023-12-14T12:14:25;25.67;;;19.37;;
16468;SDS011;8345;50.902;6.956;2023-12-14T12:16:55;26.87;;;19.93;;
16468;SDS011;8345;50.902;6.956;2023-12-14T12:19:22;24.43;;;18.30;;
16468;SDS011;8345;50.902;6.956;2023-12-14T12:21:50;23.57;;;17.13;;
16468;SDS011;8345;50.902;6.956;2023-12-14T12:24:17;26.03;;;18.07;;
16468;SDS011;8345;50.902;6.956;2023-12-14T12:26:44;23.53;;;16.80;;
16468;SDS011;8345;50.902;6.956;2023-12-14T12:29:11;23.40;;;17.67;;
16468;SDS011;8345;50.902;6.956;2023-12-14T12:31:38;22.47;;;16.93;;
16468;SDS011;8345;50.902;6.956;2023-12-14T12:34:09;24.73;;;18.00;;
16468;SDS011;8345;50.902;6.956;2023-12-14T12:36:36;27.27;;;17.67;;
16468;SDS011;8345;50.902;6.956;2023-12-14T12:39:03;24.13;;;17.73;;
16468;SDS011;8345;50.902;6.956;2023-12-14T12:41:31;22.60;;;17.37;;
16468;SDS011;8345;50.902;6.956;2023-12-14T12:43:58;25.30;;;17.83;;
16468;SDS011;8345;50.902;6.956;2023-12-14T12:46:30;26.23;;;17.67;;
16468;SDS011;8345;50.902;6.956;2023-12-14T12:48:58;23.87;;;17.90;;
16468;SDS011;8345;50.902;6.956;2023-12-14T12:51:26;23.40;;;18.33;;
16468;SDS011;8345;50.902;6.956;2023-12-14T12:53:54;25.03;;;17.53;;
16468;SDS011;8345;50.902;6.956;2023-12-14T12:56:22;24.67;;;17.90;;
16468;SDS011;8345;50.902;6.956;2023-12-14T12:58:50;21.80;;;16.47;;
16468;SDS011;8345;50.902;6.956;2023-12-14T13:01:19;21.17;;;14.93;;
16468;SDS011;8345;50.902;6.956;2023-12-14T13:03:47;19.63;;;15.33;;
16468;SDS011;8345;50.902;6.956;2023-12-14T13:06:14;19.83;;;14.97;;
16468;SDS011;8345;50.902;6.956;2023-12-14T13:08:43;17.57;;;14.23;;
16468;SDS011;8345;50.902;6.956;2023-12-14T13:11:11;18.37;;;14.10;;
16468;SDS011;8345;50.902;6.956;2023-12-14T13:13:38;15.77;;;12.40;;
16468;SDS011;8345;50.902;6.956;2023-12-14T13:16:06;18.43;;;13.83;;
16468;SDS011;8345;50.902;6.956;2023-12-14T13:18:34;15.73;;;11.87;;
16468;SDS011;8345;50.902;6.956;2023-12-14T13:21:01;16.80;;;12.60;;
16468;SDS011;8345;50.902;6.956;2023-12-14T13:23:28;15.03;;;11.53;;
16468;SDS011;8345;50.902;6.956;2023-12-14T13:25:56;17.20;;;12.13;;
16468;SDS011;8345;50.902;6.956;2023-12-14T13:28:24;17.57;;;13.23;;
16468;SDS011;8345;50.902;6.956;2023-12-14T13:30:51;17.53;;;13.07;;
16468;SDS011;8345;50.902;6.956;2023-12-14T13:33:19;16.23;;;12.57;;
16468;SDS011;8345;50.902;6.956;2023-12-14T13:35:46;16.60;;;12.87;;
16468;SDS011;8345;50.902;6.956;2023-12-14T13:38:13;16.63;;;12.53;;
16468;SDS011;8345;50.902;6.956;2023-12-14T13:40:41;16.63;;;13.27;;
16468;SDS011;8345;50.902;6.956;2023-12-14T13:43:10;17.00;;;13.47;;
16468;SDS011;8345;50.902;6.956;2023-12-14T13:45:37;16.50;;;12.67;;
16468;SDS011;8345;50.902;6.956;2023-12-14T13:48:06;15.37;;;12.27;;
16468;SDS011;8345;50.902;6.956;2023-12-14T13:50:34;16.23;;;12.90;;
16468;SDS011;8345;50.902;6.956;2023-12-14T13:53:01;15.37;;;12.27;;
16468;SDS011;8345;50.902;6.956;2023-12-14T13:55:29;14.57;;;12.23;;
16468;SDS011;8345;50.902;6.956;2023-12-14T13:57:57;15.47;;;12.30;;
16468;SDS011;8345;50.902;6.956;2023-12-14T14:00:27;14.63;;;12.33;;
16468;SDS011;8345;50.902;6.956;2023-12-14T14:02:54;16.67;;;12.80;;
16468;SDS011;8345;50.902;6.956;2023-12-14T14:05:21;16.23;;;13.40;;
16468;SDS011;8345;50.902;6.956;2023-12-14T14:07:49;16.00;;;12.80;;
16468;SDS011;8345;50.902;6.956;2023-12-14T14:10:17;15.47;;;12.60;;
16468;SDS011;8345;50.902;6.956;2023-12-14T14:12:44;23.10;;;13.43;;
16468;SDS011;8345;50.902;6.956;2023-12-14T14:15:11;21.40;;;13.47;;
16468;SDS011;8345;50.902;6.956;2023-12-14T14:17:40;22.87;;;14.30;;
16468;SDS011;8345;50.902;6.956;2023-12-14T14:20:07;22.77;;;14.13;;
16468;SDS011;8345;50.902;6.956;2023-12-14T14:22:35;15.53;;;13.60;;
16468;SDS011;8345;50.902;6.956;2023-12-14T14:25:02;16.43;;;13.70;;
16468;SDS011;8345;50.902;6.956;2023-12-14T14:27:31;17.17;;;14.13;;
16468;SDS011;8345;50.902;6.956;2023-12-14T14:29:58;18.33;;;13.37;;
16468;SDS011;8345;50.902;6.956;2023-12-14T14:32:25;17.63;;;13.43;;
16468;SDS011;8345;50.902;6.956;2023-12-14T14:34:54;16.57;;;13.60;;
16468;SDS011;8345;50.902;6.956;2023-12-14T14:37:23;16.40;;;13.80;;